Pagina principale
METAR-TAF:

METAR-TAF

Aeroporti :

Kinshasa, Congo

latitudine: 04-23S, longitudine: 015-26E, altezza: 309 m

Osservazione

Il bollettino è stato emesso 1 ora e 41 minuti fa, alle 16:00 UTC
Vento 6 kt da nord/nord-ovest
Temperature 29°C
Umidità 58%
Pressione 1012 hPa
Visibilità: 6000 m

METAR: FZAA 141600Z 33006KT 6000 NSC 29/20 Q1012 NOSIG

Ora: 18:41 (17:41 UTC)

Previsione

Il bollettino è stato emesso 41 minuti fa, alle 17:00 UTC
Previsione valida dal 14 alle 18 UTC al 15 alle 24 UTC
Vento 4 kt da ovest
Visibilità: 6000 m
Probabilità 30% :
Temporaneamente
dal 15 alle 05 UTC al 15 alle 10 UTC
Visibilità: 4000 m
Nuvoloso ad un'altezza di 1400 ft
foschia

TAF: FZAA 141700Z 1418/1524 26004KT 6000 NSC PROB30 TEMPO 1505/1510 4000 BR BKN014

Osservazioni e previsioni meteorologiche di più di 4000 aeroporti (messaggi METAR e TAF).

Le stazioni disponibili sono rappresentate dai dischi gialli e rossi sulla carta.

Puntare il mouse per vedere il nome della stazione.

Clicca sopra per visualizzare le osservazioni e previsioni meteorologiche.

Per cambiare la mappa : fare clic sui pulsanti verdi con una croce nera per ingrandire, il pulsante verde con un trattino per diminuire, o sulla freccia verde per le mappe adiacenti.


METAR-TAF: